createdAt,value
2023-04-18T00:01:50.497Z,98680.41
2023-04-18T00:04:17.234Z,98675.53
2023-04-18T00:06:43.815Z,98679.66
2023-04-18T00:09:10.133Z,98673.72
2023-04-18T00:11:37.388Z,98678.66
2023-04-18T00:14:03.693Z,98685.25
2023-04-18T00:16:29.985Z,98676.88
2023-04-18T00:18:56.461Z,98677.28
2023-04-18T00:21:22.769Z,98673.22
2023-04-18T00:23:49.283Z,98676.09
2023-04-18T00:26:15.827Z,98673.06
2023-04-18T00:28:42.149Z,98662.84
2023-04-18T00:31:08.665Z,98673.69
2023-04-18T00:33:34.990Z,98671.25
2023-04-18T00:36:01.443Z,98664.50
2023-04-18T00:38:27.741Z,98664.13
2023-04-18T00:40:54.079Z,98667.00
2023-04-18T00:43:20.345Z,98676.22
2023-04-18T00:45:46.729Z,98667.63
2023-04-18T00:48:13.071Z,98672.34
2023-04-18T00:50:39.403Z,98668.06
2023-04-18T00:53:05.664Z,98673.81
2023-04-18T00:55:32.121Z,98664.19
2023-04-18T00:57:58.431Z,98662.78
2023-04-18T01:00:24.690Z,98664.03
2023-04-18T01:02:51.123Z,98660.75
2023-04-18T01:05:17.464Z,98662.81
2023-04-18T01:07:43.797Z,98661.41
2023-04-18T01:10:10.159Z,98658.34
2023-04-18T01:12:36.966Z,98655.06
2023-04-18T01:15:03.439Z,98656.28
2023-04-18T01:17:29.869Z,98645.91
2023-04-18T01:19:56.145Z,98652.44
2023-04-18T01:22:22.448Z,98652.66
2023-04-18T01:24:48.763Z,98650.19
2023-04-18T01:27:15.048Z,98642.41
2023-04-18T01:29:41.301Z,98645.28
2023-04-18T01:32:07.680Z,98643.88
2023-04-18T01:34:34.356Z,98643.28
2023-04-18T01:37:00.868Z,98640.84
2023-04-18T01:39:30.414Z,98639.19
2023-04-18T01:41:56.712Z,98639.41
2023-04-18T01:44:23.039Z,98642.06
2023-04-18T01:46:49.677Z,98640.66
2023-04-18T01:49:15.974Z,98646.78
2023-04-18T01:51:42.246Z,98653.13
2023-04-18T01:54:08.563Z,98650.69
2023-04-18T01:56:34.838Z,98644.53
2023-04-18T01:59:01.299Z,98635.13
2023-04-18T02:01:27.709Z,98635.34
2023-04-18T02:03:54.289Z,98637.22
2023-04-18T02:06:20.797Z,98637.22
2023-04-18T02:08:47.071Z,98634.75
2023-04-18T02:11:13.548Z,98635.16
2023-04-18T02:13:39.854Z,98635.38
2023-04-18T02:16:06.195Z,98633.94
2023-04-18T02:18:32.536Z,98631.50
2023-04-18T02:20:58.942Z,98638.69
2023-04-18T02:23:25.231Z,98631.09
2023-04-18T02:25:51.567Z,98637.69
2023-04-18T02:28:17.948Z,98635.25
2023-04-18T02:30:44.287Z,98637.28
2023-04-18T02:33:10.536Z,98627.88
2023-04-18T02:35:36.812Z,98636.88
2023-04-18T02:38:03.158Z,98630.13
2023-04-18T02:40:29.551Z,98627.69
2023-04-18T02:42:55.874Z,98632.41
2023-04-18T02:45:22.289Z,98636.09
2023-04-18T02:47:55.508Z,98626.69
2023-04-18T02:50:22.728Z,98637.31
2023-04-18T02:52:49.086Z,98631.38
2023-04-18T02:55:15.357Z,98633.47
2023-04-18T02:57:41.631Z,98634.25
2023-04-18T03:00:07.858Z,98645.31
2023-04-18T03:02:34.326Z,98641.81
2023-04-18T03:05:00.786Z,98646.56
2023-04-18T03:07:27.098Z,98642.25
2023-04-18T03:09:53.541Z,98644.09
2023-04-18T03:12:20.276Z,98644.31
2023-04-18T03:14:46.617Z,98645.13
2023-04-18T03:17:13.055Z,98642.69
2023-04-18T03:19:39.402Z,98652.47
2023-04-18T03:22:06.207Z,98649.22
2023-04-18T03:24:32.636Z,98647.59
2023-04-18T03:26:59.160Z,98649.44
2023-04-18T03:29:25.828Z,98640.84
2023-04-18T03:31:52.086Z,98646.38
2023-04-18T03:34:18.692Z,98650.06
2023-04-18T03:36:47.277Z,98644.97
2023-04-18T03:39:14.714Z,98652.09
2023-04-18T03:41:41.173Z,98656.59
2023-04-18T03:44:07.480Z,98654.16
2023-04-18T03:46:33.803Z,98654.34
2023-04-18T03:49:00.120Z,98656.19
2023-04-18T03:51:26.435Z,98657.22
2023-04-18T03:53:52.696Z,98648.44
2023-04-18T03:56:19.030Z,98652.31
2023-04-18T03:58:45.525Z,98654.97
2023-04-18T04:01:12.029Z,98662.13
2023-04-18T04:03:38.837Z,98656.22
2023-04-18T04:06:05.198Z,98665.19
2023-04-18T04:08:31.506Z,98661.94
2023-04-18T04:10:57.766Z,98660.28
2023-04-18T04:13:24.024Z,98661.31
2023-04-18T04:15:50.372Z,98663.38
2023-04-18T04:18:16.705Z,98670.50
2023-04-18T04:20:43.064Z,98668.03
2023-04-18T04:23:10.147Z,98670.88
2023-04-18T04:25:36.858Z,98680.69
2023-04-18T04:28:03.118Z,98673.75
2023-04-18T04:30:29.411Z,98678.25
2023-04-18T04:33:24.074Z,98682.72
2023-04-18T04:35:51.070Z,98685.38
2023-04-18T04:38:17.470Z,98686.41
2023-04-18T04:40:43.815Z,98679.66
2023-04-18T04:43:10.087Z,98692.94
2023-04-18T04:45:36.427Z,98687.84
2023-04-18T04:48:02.930Z,98694.19
2023-04-18T04:50:29.272Z,98692.53
2023-04-18T04:52:55.544Z,98696.22
2023-04-18T04:55:22.026Z,98692.94
2023-04-18T04:57:48.324Z,98691.34
2023-04-18T05:00:14.921Z,98695.00
2023-04-18T05:02:42.311Z,98696.03
2023-04-18T05:05:08.679Z,98694.19
2023-04-18T05:07:35.106Z,98692.53
2023-04-18T05:10:01.501Z,98691.72
2023-04-18T05:12:27.751Z,98693.56
2023-04-18T05:14:54.255Z,98701.53
2023-04-18T05:17:20.844Z,98700.31
2023-04-18T05:19:47.265Z,98702.94
2023-04-18T05:22:13.565Z,98703.16
2023-04-18T05:24:39.837Z,98691.94
2023-04-18T05:27:06.110Z,98695.41
2023-04-18T05:29:32.570Z,98693.78
2023-04-18T05:31:58.823Z,98692.97
2023-04-18T05:34:25.124Z,98694.78
2023-04-18T05:36:51.568Z,98695.81
2023-04-18T05:39:17.889Z,98701.13
2023-04-18T05:41:44.256Z,98700.31
2023-04-18T05:44:10.522Z,98704.00
2023-04-18T05:46:36.799Z,98710.53
2023-04-18T05:49:03.084Z,98720.97
2023-04-18T05:51:29.325Z,98728.50
2023-04-18T05:53:55.597Z,98738.84
2023-04-18T05:56:21.849Z,98741.03
2023-04-18T05:58:48.514Z,98747.13
2023-04-18T06:01:14.765Z,98750.81
2023-04-18T06:03:41.329Z,98753.22
2023-04-18T06:06:07.747Z,98755.63
2023-04-18T06:08:34.030Z,98759.09
2023-04-18T06:11:00.375Z,98760.91
2023-04-18T06:13:26.687Z,98766.19
2023-04-18T06:15:53.009Z,98766.97
2023-04-18T06:18:19.476Z,98771.25
2023-04-18T06:20:45.788Z,98775.47
2023-04-18T06:23:12.216Z,98780.78
2023-04-18T06:25:38.700Z,98783.19
2023-04-18T06:28:05.158Z,98792.97
2023-04-18T06:30:31.526Z,98790.25
2023-04-18T06:32:57.919Z,98790.25
2023-04-18T06:35:25.962Z,98802.72
2023-04-18T06:37:53.075Z,98792.00
2023-04-18T06:40:19.367Z,98796.25
2023-04-18T06:42:45.643Z,98806.84
2023-04-18T06:45:12.035Z,98810.50
2023-04-18T06:47:38.362Z,98805.34
2023-04-18T06:50:04.825Z,98811.03
2023-04-18T06:52:31.219Z,98806.88
2023-04-18T06:55:00.753Z,98809.94
2023-04-18T06:57:27.117Z,98811.34
2023-04-18T06:59:53.419Z,98816.25
2023-04-18T07:02:19.798Z,98818.69
2023-04-18T07:04:46.295Z,98809.66
2023-04-18T07:07:12.724Z,98816.63
2023-04-18T07:09:39.151Z,98819.06
2023-04-18T07:12:07.105Z,98822.34
2023-04-18T07:14:34.288Z,98824.78
2023-04-18T07:17:00.863Z,98822.72
2023-04-18T07:19:29.633Z,98820.88
2023-04-18T07:21:55.932Z,98831.31
2023-04-18T07:24:22.236Z,98836.66
2023-04-18T07:26:48.490Z,98831.91
2023-04-18T07:29:14.917Z,98837.84
2023-04-18T07:31:41.159Z,98834.13
2023-04-18T07:34:07.558Z,98843.56
2023-04-18T07:36:34.085Z,98844.97
2023-04-18T07:39:00.555Z,98842.91
2023-04-18T07:41:26.904Z,98843.50
2023-04-18T07:43:53.230Z,98844.09
2023-04-18T07:46:19.631Z,98844.69
2023-04-18T07:48:45.991Z,98847.16
2023-04-18T07:51:12.302Z,98842.63
2023-04-18T07:53:38.572Z,98849.38
2023-04-18T07:56:04.992Z,98838.47
2023-04-18T07:58:31.301Z,98851.63
2023-04-18T08:00:57.741Z,98840.75
2023-04-18T08:03:24.426Z,98853.03
2023-04-18T08:05:50.893Z,98848.53
2023-04-18T08:08:17.304Z,98853.63
2023-04-18T08:10:44.125Z,98855.25
2023-04-18T08:13:10.424Z,98857.94
2023-04-18T08:15:36.706Z,98856.91
2023-04-18T08:18:03.076Z,98862.25
2023-04-18T08:20:29.396Z,98860.16
2023-04-18T08:25:24.980Z,98858.31
2023-04-18T08:27:51.447Z,98863.41
2023-04-18T08:30:17.878Z,98865.84
2023-04-18T08:32:44.147Z,98856.84
2023-04-18T08:35:10.461Z,98861.72
2023-04-18T08:37:36.702Z,98858.41
2023-04-18T08:40:02.958Z,98861.22
2023-04-18T08:42:29.174Z,98864.50
2023-04-18T08:44:55.461Z,98862.75
2023-04-18T08:47:22.067Z,98869.97
2023-04-18T08:49:48.433Z,98870.19
2023-04-18T08:52:14.707Z,98865.66
2023-04-18T08:54:40.963Z,98867.31
2023-04-18T08:57:07.221Z,98863.59
2023-04-18T08:59:33.644Z,98863.34
2023-04-18T09:01:59.993Z,98863.13
2023-04-18T09:04:26.386Z,98869.06
2023-04-18T09:06:52.634Z,98866.78
2023-04-18T09:09:24.991Z,98872.47
2023-04-18T09:11:51.424Z,98869.53
2023-04-18T09:14:17.658Z,98869.91
2023-04-18T09:16:44.020Z,98868.16
2023-04-18T09:19:10.414Z,98863.28
2023-04-18T09:21:36.707Z,98865.56
2023-04-18T09:24:02.943Z,98862.09
2023-04-18T09:26:29.197Z,98863.28
2023-04-18T09:28:55.511Z,98860.28
2023-04-18T09:31:21.913Z,98863.31
2023-04-18T09:33:48.503Z,98855.09
2023-04-18T09:36:14.918Z,98858.94
2023-04-18T09:38:41.394Z,98852.13
2023-04-18T09:41:10.992Z,98846.66
2023-04-18T09:43:37.291Z,98845.88
2023-04-18T09:46:03.617Z,98843.38
2023-04-18T09:48:30.382Z,98852.59
2023-04-18T09:50:56.829Z,98849.81
2023-04-18T09:53:23.133Z,98842.03
2023-04-18T09:55:49.682Z,98838.31
2023-04-18T09:58:15.957Z,98842.63
2023-04-18T10:00:42.759Z,98846.25
2023-04-18T10:03:10.389Z,98835.75
2023-04-18T10:05:37.074Z,98839.47
2023-04-18T10:08:03.415Z,98845.88
2023-04-18T10:10:29.769Z,98840.06
2023-04-18T10:12:56.091Z,98845.31
2023-04-18T10:15:22.372Z,98848.25
2023-04-18T10:18:02.684Z,98842.22
2023-04-18T10:20:30.460Z,98836.53
2023-04-18T10:22:56.899Z,98844.00
2023-04-18T10:25:23.230Z,98845.84
2023-04-18T10:27:49.552Z,98832.47
2023-04-18T10:30:15.865Z,98838.28
2023-04-18T10:32:42.218Z,98845.59
2023-04-18T10:35:08.623Z,98845.53
2023-04-18T10:37:34.931Z,98848.00
2023-04-18T10:40:01.245Z,98846.56
2023-04-18T10:42:27.556Z,98842.06
2023-04-18T10:44:54.471Z,98844.25
2023-04-18T10:47:21.243Z,98845.19
2023-04-18T10:49:47.613Z,98849.47
2023-04-18T10:52:13.927Z,98835.53
2023-04-18T10:54:40.398Z,98842.50
2023-04-18T10:57:06.672Z,98835.06
2023-04-18T10:59:32.993Z,98840.06
2023-04-18T11:01:59.524Z,98828.91
2023-04-18T11:04:25.861Z,98836.59
2023-04-18T11:06:52.367Z,98839.59
2023-04-18T11:09:19.029Z,98834.81
2023-04-18T11:11:45.850Z,98841.56
2023-04-18T11:14:12.427Z,98846.69
2023-04-18T11:16:38.978Z,98839.72
2023-04-18T11:19:05.470Z,98844.72
2023-04-18T11:21:31.741Z,98835.75
2023-04-18T11:23:58.029Z,98829.91
2023-04-18T11:26:24.449Z,98831.88
2023-04-18T11:28:50.786Z,98831.63
2023-04-18T11:31:17.192Z,98837.22
2023-04-18T11:33:43.520Z,98841.06
2023-04-18T11:36:10.068Z,98841.53
2023-04-18T11:38:36.484Z,98838.03
2023-04-18T11:41:02.791Z,98836.53
2023-04-18T11:43:29.145Z,98834.31
2023-04-18T11:45:55.511Z,98833.75
2023-04-18T11:48:21.945Z,98843.41
2023-04-18T11:50:48.651Z,98835.84
2023-04-18T11:53:14.975Z,98833.63
2023-04-18T11:55:41.548Z,98843.53
2023-04-18T11:58:07.937Z,98841.91
2023-04-18T12:00:34.381Z,98843.19
2023-04-18T12:03:00.888Z,98841.56
2023-04-18T12:05:27.517Z,98849.81
2023-04-18T12:07:53.972Z,98845.78
2023-04-18T12:10:20.340Z,98846.22
2023-04-18T12:12:46.848Z,98844.34
2023-04-18T12:15:13.169Z,98844.94
2023-04-18T12:17:39.585Z,98846.47
2023-04-18T12:20:05.949Z,98842.97
2023-04-18T12:22:32.286Z,98837.03
2023-04-18T12:24:58.562Z,98833.31
2023-04-18T12:27:24.830Z,98837.63
2023-04-18T12:29:51.112Z,98841.09
2023-04-18T12:32:17.390Z,98844.34
2023-04-18T12:34:46.388Z,98839.81
2023-04-18T12:37:12.689Z,98848.44
2023-04-18T12:39:39.046Z,98838.31
2023-04-18T12:42:05.320Z,98839.34
2023-04-18T12:44:31.559Z,98842.25
2023-04-18T12:46:57.937Z,98844.13
2023-04-18T12:49:24.309Z,98837.72
2023-04-18T12:51:51.292Z,98841.69
2023-04-18T12:54:17.784Z,98837.38
2023-04-18T12:56:44.177Z,98845.41
2023-04-18T12:59:10.552Z,98844.59
2023-04-18T13:01:36.947Z,98848.34
2023-04-18T13:04:11.688Z,98844.59
2023-04-18T13:06:39.595Z,98842.16
2023-04-18T13:09:07.057Z,98832.72
2023-04-18T13:11:33.379Z,98843.44
2023-04-18T13:13:59.772Z,98843.44
2023-04-18T13:16:26.272Z,98845.06
2023-04-18T13:18:52.741Z,98838.91
2023-04-18T13:21:19.074Z,98839.72
2023-04-18T13:23:45.342Z,98847.50
2023-04-18T13:26:11.653Z,98838.66
2023-04-18T13:28:37.898Z,98841.34
2023-04-18T13:31:04.224Z,98844.59
2023-04-18T13:33:30.573Z,98851.56
2023-04-18T13:35:56.846Z,98843.34
2023-04-18T13:38:23.167Z,98840.84
2023-04-18T13:40:55.688Z,98834.94
2023-04-18T13:43:27.475Z,98834.13
2023-04-18T13:45:53.970Z,98828.78
2023-04-18T13:48:20.385Z,98834.38
2023-04-18T13:50:46.679Z,98834.59
2023-04-18T13:53:12.968Z,98839.38
2023-04-18T13:55:39.303Z,98835.88
2023-04-18T13:58:06.660Z,98831.56
2023-04-18T14:00:33.846Z,98834.25
2023-04-18T14:03:00.525Z,98830.75
2023-04-18T14:05:28.719Z,98829.94
2023-04-18T14:07:55.162Z,98816.91
2023-04-18T14:10:21.516Z,98832.03
2023-04-18T14:12:47.868Z,98833.66
2023-04-18T14:15:24.841Z,98830.53
2023-04-18T14:17:57.118Z,98833.19
2023-04-18T14:20:24.348Z,98827.25
2023-04-18T14:22:52.995Z,98824.56
2023-04-18T14:25:19.794Z,98827.25
2023-04-18T14:27:46.239Z,98826.22
2023-04-18T14:30:12.645Z,98830.53
2023-04-18T14:32:39.002Z,98825.75
2023-04-18T14:35:05.781Z,98817.72
2023-04-18T14:37:32.053Z,98818.75
2023-04-18T14:39:58.376Z,98810.72
2023-04-18T14:42:24.811Z,98813.97
2023-04-18T14:44:51.162Z,98813.97
2023-04-18T14:47:17.489Z,98803.03
2023-04-18T14:49:43.977Z,98810.84
2023-04-18T14:52:10.295Z,98811.41
2023-04-18T14:54:36.548Z,98808.72
2023-04-18T14:57:02.937Z,98804.19
2023-04-18T14:59:29.359Z,98805.00
2023-04-18T15:01:56.104Z,98804.19
2023-04-18T15:04:23.754Z,98806.88
2023-04-18T15:07:03.722Z,98812.81
2023-04-18T15:09:31.280Z,98802.59
2023-04-18T15:11:57.729Z,98802.34
2023-04-18T15:14:34.027Z,98794.31
2023-04-18T15:17:13.908Z,98791.97
2023-04-18T15:22:35.564Z,98799.88
2023-04-18T15:27:54.047Z,98797.44
2023-04-18T15:30:23.349Z,98804.63
2023-04-18T15:32:59.686Z,98814.31
2023-04-18T15:35:31.391Z,98807.09
2023-04-18T15:38:07.152Z,98802.53
2023-04-18T15:40:33.495Z,98805.81
2023-04-18T15:43:00.017Z,98808.25
2023-04-18T15:45:26.352Z,98811.16
2023-04-18T15:47:52.808Z,98809.06
2023-04-18T15:50:19.160Z,98809.06
2023-04-18T15:52:45.443Z,98794.84
2023-04-18T15:55:12.062Z,98799.38
2023-04-18T15:57:38.953Z,98807.19
2023-04-18T16:00:05.280Z,98802.66
2023-04-18T16:02:31.641Z,98801.81
2023-04-18T16:05:06.587Z,98798.13
2023-04-18T16:14:22.360Z,98794.38
2023-04-18T16:16:49.172Z,98803.81
2023-04-18T16:19:15.434Z,98802.75
2023-04-18T16:21:41.696Z,98800.66
2023-04-18T16:24:07.895Z,98795.06
2023-04-18T16:26:34.152Z,98801.81
2023-04-18T16:29:00.447Z,98812.78
2023-04-18T16:31:27.148Z,98811.94
2023-04-18T16:33:53.504Z,98807.66
2023-04-18T16:36:19.820Z,98805.19
2023-04-18T16:38:46.466Z,98810.00
2023-04-18T16:41:12.953Z,98804.06
2023-04-18T16:43:39.200Z,98801.38
2023-04-18T16:46:05.579Z,98805.09
2023-04-18T16:48:31.909Z,98804.28
2023-04-18T16:50:58.285Z,98808.84
2023-04-18T16:53:24.884Z,98817.91
2023-04-18T16:55:51.273Z,98806.63
2023-04-18T16:58:17.588Z,98811.41
2023-04-18T17:00:43.942Z,98810.59
2023-04-18T17:03:10.321Z,98810.81
2023-04-18T17:05:36.781Z,98814.78
2023-04-18T17:08:03.104Z,98816.66
2023-04-18T17:10:29.450Z,98819.56
2023-04-18T17:12:56.048Z,98821.66
2023-04-18T17:15:22.384Z,98813.06
2023-04-18T17:17:48.873Z,98820.25
2023-04-18T17:20:15.227Z,98813.53
2023-04-18T17:22:41.550Z,98819.34
2023-04-18T17:25:08.011Z,98815.03
2023-04-18T17:27:34.507Z,98825.16
2023-04-18T17:30:00.923Z,98831.78
2023-04-18T17:32:27.460Z,98821.31
2023-04-18T17:34:55.825Z,98819.69
2023-04-18T17:37:22.176Z,98815.38
2023-04-18T17:39:48.543Z,98815.84
2023-04-18T17:42:14.806Z,98818.78
2023-04-18T17:44:41.271Z,98820.84
2023-04-18T17:47:07.524Z,98824.84
2023-04-18T17:49:33.883Z,98826.91
2023-04-18T17:52:00.230Z,98826.34
2023-04-18T17:54:26.512Z,98830.06
2023-04-18T17:56:53.051Z,98826.81
2023-04-18T17:59:19.591Z,98825.41
2023-04-18T18:01:46.248Z,98827.47
2023-04-18T18:04:13.112Z,98834.47
2023-04-18T18:06:39.861Z,98833.88
2023-04-18T18:09:06.679Z,98835.72
2023-04-18T18:11:33.148Z,98834.91
2023-04-18T18:13:59.601Z,98837.56
2023-04-18T18:16:26.199Z,98837.38
2023-04-18T18:18:53.675Z,98848.88
2023-04-18T18:21:20.005Z,98844.34
2023-04-18T18:23:46.274Z,98839.81
2023-04-18T18:26:12.806Z,98847.84
2023-04-18T18:28:39.419Z,98852.16
2023-04-18T18:31:05.879Z,98846.81
2023-04-18T18:33:33.888Z,98849.50
2023-04-18T18:36:01.404Z,98851.13
2023-04-18T18:38:27.800Z,98851.31
2023-04-18T18:40:54.074Z,98859.16
2023-04-18T18:43:20.413Z,98859.34
2023-04-18T18:45:46.666Z,98853.97
2023-04-18T18:48:13.114Z,98852.16
2023-04-18T18:50:39.431Z,98860.19
2023-04-18T18:53:05.956Z,98856.66
2023-04-18T18:55:32.537Z,98842.22
2023-04-18T18:57:58.957Z,98858.97
2023-04-18T19:00:25.343Z,98857.38
2023-04-18T19:02:51.883Z,98863.78
2023-04-18T19:05:18.629Z,98857.59
2023-04-18T19:07:45.437Z,98863.78
2023-04-18T19:10:11.714Z,98862.13
2023-04-18T19:12:38.046Z,98861.31
2023-04-18T19:15:04.318Z,98859.69
2023-04-18T19:17:31.303Z,98859.94
2023-04-18T19:19:57.670Z,98867.13
2023-04-18T19:22:24.024Z,98863.63
2023-04-18T19:24:50.310Z,98867.38
2023-04-18T19:27:16.617Z,98860.41
2023-04-18T19:32:29.582Z,98860.03
2023-04-18T19:34:56.229Z,98855.72
2023-04-18T19:37:22.738Z,98860.25
2023-04-18T19:39:49.039Z,98863.16
2023-04-18T19:42:15.345Z,98867.47
2023-04-18T19:44:41.833Z,98870.94
2023-04-18T19:47:08.088Z,98868.06
2023-04-18T19:49:34.420Z,98869.09
2023-04-18T19:52:00.783Z,98863.97
2023-04-18T19:54:26.976Z,98857.56
2023-04-18T19:56:53.174Z,98850.38
2023-04-18T19:59:19.480Z,98857.38
2023-04-18T20:01:46.022Z,98860.03
2023-04-18T20:04:12.822Z,98857.38
2023-04-18T20:06:39.147Z,98861.91
2023-04-18T20:09:05.402Z,98858.41
2023-04-18T20:11:33.520Z,98862.13
2023-04-18T20:13:59.832Z,98862.91
2023-04-18T20:16:26.116Z,98864.81
2023-04-18T20:18:54.294Z,98866.91
2023-04-18T20:21:21.749Z,98863.16
2023-04-18T20:23:48.093Z,98866.91
2023-04-18T20:26:14.504Z,98863.16
2023-04-18T20:28:40.799Z,98860.47
2023-04-18T20:31:07.212Z,98865.84
2023-04-18T20:33:33.674Z,98864.81
2023-04-18T20:36:00.099Z,98866.66
2023-04-18T20:38:26.422Z,98860.25
2023-04-18T20:40:52.723Z,98871.78
2023-04-18T20:43:19.089Z,98868.06
2023-04-18T20:45:46.086Z,98870.75
2023-04-18T20:48:16.911Z,98864.56
2023-04-18T20:50:44.110Z,98860.25
2023-04-18T20:53:10.395Z,98865.84
2023-04-18T20:55:36.757Z,98867.47
2023-04-18T20:58:03.127Z,98859.69
2023-04-18T21:00:29.515Z,98862.38
2023-04-18T21:02:56.378Z,98870.41
2023-04-18T21:05:22.988Z,98873.31
2023-04-18T21:07:49.345Z,98871.88
2023-04-18T21:10:15.571Z,98876.41
2023-04-18T21:12:41.975Z,98870.28
2023-04-18T21:15:08.204Z,98867.78
2023-04-18T21:17:34.495Z,98870.47
2023-04-18T21:20:00.722Z,98860.84
2023-04-18T21:22:26.957Z,98875.28
2023-04-18T21:24:53.338Z,98869.09
2023-04-18T21:27:19.648Z,98873.63
2023-04-18T21:29:45.901Z,98869.31
2023-04-18T21:32:12.239Z,98873.03
2023-04-18T21:34:38.500Z,98867.91
2023-04-18T21:37:04.732Z,98864.41
2023-04-18T21:39:31.085Z,98864.66
2023-04-18T21:41:59.445Z,98863.84
2023-04-18T21:44:30.108Z,98869.41
2023-04-18T21:46:56.740Z,98855.13
2023-04-18T21:49:23.007Z,98856.25
2023-04-18T21:51:49.434Z,98852.84
2023-04-18T21:54:16.253Z,98853.19
2023-04-18T21:56:42.785Z,98853.25
2023-04-18T21:59:10.895Z,98851.50
2023-04-18T22:01:37.486Z,98846.03
2023-04-18T22:04:04.062Z,98848.53
2023-04-18T22:06:30.500Z,98845.72
2023-04-18T22:08:57.058Z,98840.22
2023-04-18T22:11:23.448Z,98840.09
2023-04-18T22:13:52.227Z,98832.78
2023-04-18T22:16:18.665Z,98839.00
2023-04-18T22:18:45.006Z,98830.63
2023-04-18T22:21:11.420Z,98833.75
2023-04-18T22:23:37.678Z,98833.38
2023-04-18T22:26:04.269Z,98836.75
2023-04-18T22:28:30.702Z,98838.22
2023-04-18T22:30:57.297Z,98836.00
2023-04-18T22:33:23.779Z,98823.06
2023-04-18T22:35:50.217Z,98828.88
2023-04-18T22:38:16.686Z,98825.00
2023-04-18T22:40:43.221Z,98827.09
2023-04-18T22:43:10.910Z,98827.53
2023-04-18T22:45:37.427Z,98826.13
2023-04-18T22:48:04.942Z,98822.28
2023-04-18T22:50:31.393Z,98817.38
2023-04-18T22:52:58.887Z,98817.03
2023-04-18T22:55:25.570Z,98818.25
2023-04-18T22:57:53.427Z,98816.88
2023-04-18T23:00:19.849Z,98818.13
2023-04-18T23:02:46.375Z,98813.22
2023-04-18T23:05:12.880Z,98810.78
2023-04-18T23:07:39.310Z,98817.34
2023-04-18T23:10:06.068Z,98812.22
2023-04-18T23:12:32.408Z,98811.84
2023-04-18T23:14:58.930Z,98812.06
2023-04-18T23:17:25.356Z,98810.66
2023-04-18T23:19:51.874Z,98806.38
2023-04-18T23:22:18.606Z,98806.59
2023-04-18T23:24:46.325Z,98806.81
2023-04-18T23:27:12.853Z,98816.06
2023-04-18T23:29:39.369Z,98821.84
2023-04-18T23:32:06.953Z,98819.41
2023-04-18T23:34:33.383Z,98829.25
2023-04-18T23:36:59.722Z,98821.47
2023-04-18T23:39:26.268Z,98822.63
2023-04-18T23:41:53.791Z,98829.78
2023-04-18T23:44:20.309Z,98831.22
2023-04-18T23:46:46.978Z,98823.41
2023-04-18T23:49:13.471Z,98820.16
2023-04-18T23:51:39.855Z,98822.22
2023-04-18T23:54:06.394Z,98814.44
2023-04-18T23:56:32.876Z,98811.19
2023-04-18T23:58:59.349Z,98813.25
